createdAt,value
2022-09-13T00:00:10.307Z,1003.64
2022-09-13T00:01:10.346Z,1003.64
2022-09-13T00:02:10.319Z,1003.65
2022-09-13T00:03:10.277Z,1003.63
2022-09-13T00:04:10.275Z,1003.60
2022-09-13T00:05:10.282Z,1003.55
2022-09-13T00:06:10.236Z,1003.58
2022-09-13T00:07:10.252Z,1003.52
2022-09-13T00:08:10.216Z,1003.54
2022-09-13T00:09:10.209Z,1003.56
2022-09-13T00:10:10.262Z,1003.54
2022-09-13T00:11:10.196Z,1003.55
2022-09-13T00:12:10.177Z,1003.57
2022-09-13T00:13:10.187Z,1003.55
2022-09-13T00:14:10.149Z,1003.54
2022-09-13T00:15:10.148Z,1003.54
2022-09-13T00:16:10.185Z,1003.53
2022-09-13T00:17:10.121Z,1003.51
2022-09-13T00:18:10.127Z,1003.52
2022-09-13T00:19:10.100Z,1003.55
2022-09-13T00:20:10.089Z,1003.51
2022-09-13T00:21:10.079Z,1003.51
2022-09-13T00:22:10.089Z,1003.48
2022-09-13T00:23:10.061Z,1003.52
2022-09-13T00:24:10.055Z,1003.46
2022-09-13T00:25:10.040Z,1003.53
2022-09-13T00:26:10.021Z,1003.53
2022-09-13T00:27:10.040Z,1003.46
2022-09-13T00:28:10.002Z,1003.44
2022-09-13T00:29:10.002Z,1003.44
2022-09-13T00:30:09.976Z,1003.42
2022-09-13T00:31:09.974Z,1003.43
2022-09-13T00:32:09.981Z,1003.36
2022-09-13T00:33:09.949Z,1003.38
2022-09-13T00:34:09.932Z,1003.30
2022-09-13T00:35:09.929Z,1003.32
2022-09-13T00:36:09.913Z,1003.27
2022-09-13T00:37:09.929Z,1003.27
2022-09-13T00:38:09.902Z,1003.24
2022-09-13T00:39:09.884Z,1003.21
2022-09-13T00:40:09.903Z,1003.24
2022-09-13T00:41:09.862Z,1003.23
2022-09-13T00:42:09.873Z,1003.18
2022-09-13T00:43:09.864Z,1003.17
2022-09-13T00:44:09.825Z,1003.16
2022-09-13T00:45:09.826Z,1003.17
2022-09-13T00:46:09.872Z,1003.15
2022-09-13T00:47:09.794Z,1003.14
2022-09-13T00:48:09.804Z,1003.14
2022-09-13T00:49:09.774Z,1003.10
2022-09-13T00:50:09.763Z,1003.11
2022-09-13T00:51:09.749Z,1003.07
2022-09-13T00:52:09.736Z,1003.03
2022-09-13T00:53:09.734Z,1003.06
2022-09-13T00:54:09.737Z,1003.10
2022-09-13T00:55:09.704Z,1003.10
2022-09-13T00:56:09.697Z,1003.10
2022-09-13T00:57:09.687Z,1003.01
2022-09-13T00:58:09.695Z,1003.00
2022-09-13T00:59:09.731Z,1002.98
2022-09-13T01:00:09.648Z,1002.99
2022-09-13T01:01:09.654Z,1002.98
2022-09-13T01:02:09.697Z,1002.97
2022-09-13T01:03:09.619Z,1002.95
2022-09-13T01:04:12.595Z,1002.97
2022-09-13T01:05:09.605Z,1002.96
2022-09-13T01:06:09.587Z,1002.96
2022-09-13T01:07:09.578Z,1002.99
2022-09-13T01:08:09.559Z,1002.93
2022-09-13T01:09:09.579Z,1002.97
2022-09-13T01:10:09.540Z,1002.95
2022-09-13T01:11:09.529Z,1002.87
2022-09-13T01:12:09.518Z,1002.89
2022-09-13T01:13:09.509Z,1002.90
2022-09-13T01:14:09.519Z,1002.91
2022-09-13T01:15:09.494Z,1002.83
2022-09-13T01:16:09.482Z,1002.88
2022-09-13T01:17:09.460Z,1002.91
2022-09-13T01:18:09.453Z,1002.94
2022-09-13T01:19:09.440Z,1002.94
2022-09-13T01:20:09.460Z,1002.91
2022-09-13T01:21:09.420Z,1002.88
2022-09-13T01:22:09.418Z,1002.93
2022-09-13T01:23:09.400Z,1002.88
2022-09-13T01:24:09.390Z,1002.87
2022-09-13T01:25:09.409Z,1002.92
2022-09-13T01:26:09.363Z,1002.89
2022-09-13T01:27:09.361Z,1002.85
2022-09-13T01:28:09.342Z,1002.86
2022-09-13T01:29:09.336Z,1002.86
2022-09-13T01:30:09.344Z,1002.83
2022-09-13T01:31:09.312Z,1002.85
2022-09-13T01:32:09.362Z,1002.79
2022-09-13T01:33:09.294Z,1002.80
2022-09-13T01:34:09.274Z,1002.82
2022-09-13T01:35:09.271Z,1002.85
2022-09-13T01:36:09.274Z,1002.85
2022-09-13T01:37:09.244Z,1002.88
2022-09-13T01:38:09.264Z,1002.88
2022-09-13T01:39:09.223Z,1002.88
2022-09-13T01:40:09.278Z,1002.87
2022-09-13T01:41:09.203Z,1002.87
2022-09-13T01:42:09.212Z,1002.88
2022-09-13T01:43:09.205Z,1002.85
2022-09-13T01:44:09.164Z,1002.89
2022-09-13T01:45:09.156Z,1002.86
2022-09-13T01:46:09.169Z,1002.84
2022-09-13T01:47:09.157Z,1002.85
2022-09-13T01:48:09.128Z,1002.85
2022-09-13T01:49:09.116Z,1002.84
2022-09-13T01:50:09.105Z,1002.84
2022-09-13T01:51:09.087Z,1002.87
2022-09-13T01:52:09.095Z,1002.94
2022-09-13T01:53:09.076Z,1002.92
2022-09-13T01:54:09.057Z,1002.86
2022-09-13T01:55:09.051Z,1002.90
2022-09-13T01:56:09.036Z,1002.91
2022-09-13T01:57:09.058Z,1002.91
2022-09-13T01:58:09.018Z,1002.87
2022-09-13T01:59:09.017Z,1002.86
2022-09-13T02:00:08.987Z,1002.82
2022-09-13T02:01:09.047Z,1002.81
2022-09-13T02:02:09.036Z,1002.78
2022-09-13T02:03:08.986Z,1002.79
2022-09-13T02:04:08.948Z,1002.78
2022-09-13T02:05:08.939Z,1002.75
2022-09-13T02:06:08.930Z,1002.69
2022-09-13T02:07:08.920Z,1002.67
2022-09-13T02:08:08.901Z,1002.67
2022-09-13T02:09:08.918Z,1002.65
2022-09-13T02:10:08.889Z,1002.64
2022-09-13T02:11:08.880Z,1002.62
2022-09-13T02:12:08.881Z,1002.60
2022-09-13T02:13:08.851Z,1002.64
2022-09-13T02:14:08.841Z,1002.65
2022-09-13T02:15:08.831Z,1002.68
2022-09-13T02:16:08.864Z,1002.66
2022-09-13T02:17:08.811Z,1002.66
2022-09-13T02:18:08.821Z,1002.70
2022-09-13T02:19:08.811Z,1002.69
2022-09-13T02:20:08.772Z,1002.67
2022-09-13T02:21:08.762Z,1002.72
2022-09-13T02:22:08.752Z,1002.68
2022-09-13T02:23:08.770Z,1002.69
2022-09-13T02:24:08.725Z,1002.70
2022-09-13T02:25:08.722Z,1002.72
2022-09-13T02:26:08.701Z,1002.67
2022-09-13T02:27:08.693Z,1002.64
2022-09-13T02:28:08.685Z,1002.65
2022-09-13T02:29:08.701Z,1002.67
2022-09-13T02:30:08.684Z,1002.72
2022-09-13T02:31:08.653Z,1002.67
2022-09-13T02:32:08.643Z,1002.65
2022-09-13T02:33:08.639Z,1002.69
2022-09-13T02:34:08.626Z,1002.72
2022-09-13T02:35:08.638Z,1002.71
2022-09-13T02:36:08.622Z,1002.67
2022-09-13T02:37:08.594Z,1002.66
2022-09-13T02:38:08.576Z,1002.65
2022-09-13T02:39:08.565Z,1002.67
2022-09-13T02:40:08.719Z,1002.70
2022-09-13T02:41:08.539Z,1002.71
2022-09-13T02:42:12.348Z,1002.74
2022-09-13T02:43:08.518Z,1002.71
2022-09-13T02:44:08.515Z,1002.70
2022-09-13T02:45:08.523Z,1002.69
2022-09-13T02:46:08.516Z,1002.68
2022-09-13T02:47:08.477Z,1002.65
2022-09-13T02:48:08.467Z,1002.68
2022-09-13T02:49:08.468Z,1002.71
2022-09-13T02:50:08.447Z,1002.71
2022-09-13T02:51:08.460Z,1002.76
2022-09-13T02:52:08.428Z,1002.72
2022-09-13T02:53:08.409Z,1002.71
2022-09-13T02:54:08.428Z,1002.75
2022-09-13T02:55:08.388Z,1002.73
2022-09-13T02:56:08.382Z,1002.68
2022-09-13T02:57:08.369Z,1002.75
2022-09-13T02:58:08.357Z,1002.71
2022-09-13T02:59:08.347Z,1002.67
2022-09-13T03:00:08.360Z,1002.67
2022-09-13T03:01:08.345Z,1002.64
2022-09-13T03:02:08.384Z,1002.68
2022-09-13T03:03:08.300Z,1002.62
2022-09-13T03:04:08.291Z,1002.65
2022-09-13T03:05:08.300Z,1002.66
2022-09-13T03:06:08.278Z,1002.63
2022-09-13T03:07:08.251Z,1002.66
2022-09-13T03:08:08.252Z,1002.67
2022-09-13T03:09:08.232Z,1002.65
2022-09-13T03:10:08.222Z,1002.68
2022-09-13T03:11:08.230Z,1002.64
2022-09-13T03:12:08.232Z,1002.67
2022-09-13T03:13:08.205Z,1002.66
2022-09-13T03:14:08.190Z,1002.61
2022-09-13T03:15:08.174Z,1002.66
2022-09-13T03:16:08.212Z,1002.68
2022-09-13T03:17:08.179Z,1002.67
2022-09-13T03:18:08.162Z,1002.68
2022-09-13T03:19:08.122Z,1002.67
2022-09-13T03:20:08.123Z,1002.66
2022-09-13T03:21:08.123Z,1002.71
2022-09-13T03:22:08.095Z,1002.65
2022-09-13T03:23:08.081Z,1002.68
2022-09-13T03:24:08.103Z,1002.65
2022-09-13T03:25:08.057Z,1002.68
2022-09-13T03:26:08.052Z,1002.71
2022-09-13T03:27:08.034Z,1002.71
2022-09-13T03:28:08.023Z,1002.70
2022-09-13T03:29:08.021Z,1002.64
2022-09-13T03:30:08.025Z,1002.67
2022-09-13T03:31:07.994Z,1002.66
2022-09-13T03:32:08.027Z,1002.63
2022-09-13T03:33:07.994Z,1002.60
2022-09-13T03:34:07.967Z,1002.55
2022-09-13T03:35:07.955Z,1002.51
2022-09-13T03:36:07.949Z,1002.54
2022-09-13T03:37:07.957Z,1002.52
2022-09-13T03:38:07.915Z,1002.48
2022-09-13T03:39:10.782Z,1002.51
2022-09-13T03:40:08.978Z,1002.46
2022-09-13T03:41:07.888Z,1002.49
2022-09-13T03:42:07.894Z,1002.45
2022-09-13T03:43:07.865Z,1002.46
2022-09-13T03:44:07.848Z,1002.44
2022-09-13T03:45:07.838Z,1002.44
2022-09-13T03:46:07.860Z,1002.49
2022-09-13T03:47:07.840Z,1002.46
2022-09-13T03:48:07.808Z,1002.51
2022-09-13T03:49:07.798Z,1002.50
2022-09-13T03:50:07.787Z,1002.51
2022-09-13T03:51:07.785Z,1002.41
2022-09-13T03:52:07.788Z,1002.41
2022-09-13T03:53:07.758Z,1002.38
2022-09-13T03:54:07.747Z,1002.43
2022-09-13T03:55:07.737Z,1002.45
2022-09-13T03:56:07.721Z,1002.44
2022-09-13T03:57:07.740Z,1002.42
2022-09-13T03:58:07.700Z,1002.48
2022-09-13T03:59:07.688Z,1002.52
2022-09-13T04:00:07.672Z,1002.52
2022-09-13T04:01:07.708Z,1002.51
2022-09-13T04:02:07.752Z,1002.63
2022-09-13T04:03:07.650Z,1002.62
2022-09-13T04:04:07.633Z,1002.63
2022-09-13T04:05:07.627Z,1002.67
2022-09-13T04:06:07.611Z,1002.75
2022-09-13T04:07:07.602Z,1002.74
2022-09-13T04:08:07.615Z,1002.79
2022-09-13T04:09:07.581Z,1002.80
2022-09-13T04:10:10.698Z,1002.81
2022-09-13T04:11:08.559Z,1002.78
2022-09-13T04:12:07.572Z,1002.77
2022-09-13T04:13:07.533Z,1002.79
2022-09-13T04:14:07.523Z,1002.78
2022-09-13T04:15:07.513Z,1002.80
2022-09-13T04:16:07.586Z,1002.77
2022-09-13T04:17:07.523Z,1002.79
2022-09-13T04:18:07.504Z,1002.76
2022-09-13T04:19:07.463Z,1002.72
2022-09-13T04:20:07.452Z,1002.77
2022-09-13T04:21:07.456Z,1002.81
2022-09-13T04:22:07.435Z,1002.78
2022-09-13T04:23:07.424Z,1002.81
2022-09-13T04:24:07.435Z,1002.76
2022-09-13T04:25:07.407Z,1002.79
2022-09-13T04:26:07.387Z,1002.77
2022-09-13T04:27:07.386Z,1002.80
2022-09-13T04:28:07.367Z,1002.81
2022-09-13T04:29:07.356Z,1002.78
2022-09-13T04:30:07.376Z,1002.79
2022-09-13T04:31:07.350Z,1002.81
2022-09-13T04:32:07.327Z,1002.80
2022-09-13T04:33:07.337Z,1002.79
2022-09-13T04:34:07.305Z,1002.83
2022-09-13T04:35:07.295Z,1002.85
2022-09-13T04:36:07.278Z,1002.80
2022-09-13T04:37:07.275Z,1002.82
2022-09-13T04:38:07.286Z,1002.78
2022-09-13T04:39:07.251Z,1002.79
2022-09-13T04:40:07.298Z,1002.74
2022-09-13T04:41:07.227Z,1002.70
2022-09-13T04:42:07.223Z,1002.68
2022-09-13T04:43:07.227Z,1002.71
2022-09-13T04:44:07.190Z,1002.71
2022-09-13T04:45:07.187Z,1002.69
2022-09-13T04:46:07.213Z,1002.70
2022-09-13T04:47:07.167Z,1002.62
2022-09-13T04:48:07.177Z,1002.61
2022-09-13T04:49:07.139Z,1002.62
2022-09-13T04:50:07.136Z,1002.63
2022-09-13T04:51:07.128Z,1002.60
2022-09-13T04:52:07.104Z,1002.63
2022-09-13T04:53:07.130Z,1002.61
2022-09-13T04:54:07.519Z,1002.56
2022-09-13T04:55:07.081Z,1002.55
2022-09-13T04:56:07.061Z,1002.53
2022-09-13T04:57:07.050Z,1002.52
2022-09-13T04:58:07.041Z,1002.55
2022-09-13T04:59:07.051Z,1002.58
2022-09-13T05:00:07.060Z,1002.62
2022-09-13T05:01:07.089Z,1002.64
2022-09-13T05:02:07.061Z,1002.65
2022-09-13T05:03:06.983Z,1002.67
2022-09-13T05:04:06.973Z,1002.64
2022-09-13T05:05:06.971Z,1002.62
2022-09-13T05:06:06.973Z,1002.65
2022-09-13T05:07:06.945Z,1002.67
2022-09-13T05:08:06.934Z,1002.65
2022-09-13T05:09:06.921Z,1002.65
2022-09-13T05:10:06.912Z,1002.66
2022-09-13T05:11:06.900Z,1002.64
2022-09-13T05:12:06.902Z,1002.69
2022-09-13T05:13:06.882Z,1002.68
2022-09-13T05:14:06.862Z,1002.68
2022-09-13T05:15:06.855Z,1002.67
2022-09-13T05:16:06.897Z,1002.62
2022-09-13T05:17:06.863Z,1002.66
2022-09-13T05:18:06.824Z,1002.66
2022-09-13T05:19:06.813Z,1002.60
2022-09-13T05:20:06.796Z,1002.57
2022-09-13T05:21:06.800Z,1002.54
2022-09-13T05:22:13.858Z,1002.57
2022-09-13T05:23:06.768Z,1002.51
2022-09-13T05:24:06.758Z,1002.52
2022-09-13T05:25:06.748Z,1002.53
2022-09-13T05:26:06.732Z,1002.59
2022-09-13T05:27:06.736Z,1002.51
2022-09-13T05:28:06.738Z,1002.52
2022-09-13T05:29:06.722Z,1002.59
2022-09-13T05:30:06.689Z,1002.52
2022-09-13T05:31:06.719Z,1002.56
2022-09-13T05:32:06.689Z,1002.57
2022-09-13T05:33:06.666Z,1002.61
2022-09-13T05:34:06.659Z,1002.61
2022-09-13T05:35:06.638Z,1002.59
2022-09-13T05:36:06.619Z,1002.58
2022-09-13T05:37:06.640Z,1002.61
2022-09-13T05:38:06.602Z,1002.59
2022-09-13T05:40:11.676Z,1002.57
2022-09-13T05:41:06.570Z,1002.62
2022-09-13T05:42:06.615Z,1002.63
2022-09-13T05:43:06.571Z,1002.58
2022-09-13T05:44:12.925Z,1002.60
2022-09-13T05:45:07.523Z,1002.61
2022-09-13T05:46:06.533Z,1002.67
2022-09-13T05:47:06.504Z,1002.61
2022-09-13T05:48:06.512Z,1002.67
2022-09-13T05:49:06.503Z,1002.69
2022-09-13T05:50:11.820Z,1002.71
2022-09-13T05:51:07.463Z,1002.66
2022-09-13T05:52:06.444Z,1002.70
2022-09-13T05:53:06.442Z,1002.66
2022-09-13T05:54:06.452Z,1002.75
2022-09-13T05:55:06.421Z,1002.69
2022-09-13T05:56:06.403Z,1002.73
2022-09-13T05:57:06.394Z,1002.72
2022-09-13T05:58:06.383Z,1002.74
2022-09-13T05:59:06.394Z,1002.72
2022-09-13T06:00:06.364Z,1002.75
2022-09-13T06:01:06.352Z,1002.75
2022-09-13T06:02:06.432Z,1002.77
2022-09-13T06:03:06.337Z,1002.78
2022-09-13T06:04:06.316Z,1002.82
2022-09-13T06:05:06.328Z,1002.82
2022-09-13T06:06:06.315Z,1002.83
2022-09-13T06:07:06.331Z,1002.83
2022-09-13T06:08:06.269Z,1002.82
2022-09-13T06:09:06.266Z,1002.81
2022-09-13T06:10:06.245Z,1002.80
2022-09-13T06:11:06.265Z,1002.84
2022-09-13T06:12:06.226Z,1002.86
2022-09-13T06:13:06.221Z,1002.89
2022-09-13T06:14:06.206Z,1002.88
2022-09-13T06:15:06.198Z,1002.91
2022-09-13T06:16:06.262Z,1002.88
2022-09-13T06:17:06.178Z,1002.86
2022-09-13T06:18:06.159Z,1002.86
2022-09-13T06:19:06.155Z,1002.86
2022-09-13T06:20:06.145Z,1002.88
2022-09-13T06:21:06.130Z,1002.87
2022-09-13T06:22:06.140Z,1002.91
2022-09-13T06:23:06.110Z,1002.87
2022-09-13T06:24:06.099Z,1002.87
2022-09-13T06:25:06.094Z,1002.84
2022-09-13T06:26:06.078Z,1002.86
2022-09-13T06:27:06.094Z,1002.85
2022-09-13T06:28:06.058Z,1002.88
2022-09-13T06:29:06.047Z,1002.85
2022-09-13T06:30:06.032Z,1002.89
2022-09-13T06:31:06.048Z,1002.86
2022-09-13T06:32:06.031Z,1002.88
2022-09-13T06:33:06.022Z,1002.86
2022-09-13T06:34:05.991Z,1002.88
2022-09-13T06:35:05.994Z,1002.91
2022-09-13T06:36:05.962Z,1002.86
2022-09-13T06:37:05.953Z,1002.90
2022-09-13T06:38:05.963Z,1002.90
2022-09-13T06:39:05.939Z,1002.92
2022-09-13T06:40:05.941Z,1002.91
2022-09-13T06:41:05.912Z,1002.88
2022-09-13T06:42:05.901Z,1002.92
2022-09-13T06:43:05.914Z,1002.86
2022-09-13T06:44:05.882Z,1002.91
2022-09-13T06:45:05.874Z,1002.90
2022-09-13T06:46:05.899Z,1002.92
2022-09-13T06:47:05.861Z,1002.88
2022-09-13T06:48:05.893Z,1002.92
2022-09-13T06:49:05.823Z,1002.90
2022-09-13T06:50:05.815Z,1002.86
2022-09-13T06:51:05.806Z,1002.83
2022-09-13T06:52:05.795Z,1002.83
2022-09-13T06:53:05.777Z,1002.84
2022-09-13T06:54:05.796Z,1002.83
2022-09-13T06:55:09.507Z,1002.84
2022-09-13T06:56:06.753Z,1002.86
2022-09-13T06:57:05.736Z,1002.85
2022-09-13T06:58:05.727Z,1002.86
2022-09-13T06:59:05.716Z,1002.95
2022-09-13T07:00:05.730Z,1002.89
2022-09-13T07:01:05.725Z,1002.89
2022-09-13T07:02:05.713Z,1002.95
2022-09-13T07:03:05.668Z,1002.95
2022-09-13T07:04:05.689Z,1002.90
2022-09-13T07:05:05.648Z,1002.90
2022-09-13T07:06:05.645Z,1002.90
2022-09-13T07:07:05.627Z,1002.89
2022-09-13T07:08:05.621Z,1002.85
2022-09-13T07:09:05.608Z,1002.88
2022-09-13T07:10:05.621Z,1002.91
2022-09-13T07:11:05.581Z,1002.89
2022-09-13T07:12:05.576Z,1002.90
2022-09-13T07:13:05.560Z,1002.92
2022-09-13T07:14:05.551Z,1002.87
2022-09-13T07:15:05.559Z,1002.93
2022-09-13T07:16:05.573Z,1002.92
2022-09-13T07:17:05.521Z,1002.89
2022-09-13T07:18:05.510Z,1002.93
2022-09-13T07:19:05.519Z,1002.93
2022-09-13T07:20:05.490Z,1002.90
2022-09-13T07:21:05.470Z,1002.88
2022-09-13T07:22:05.468Z,1002.89
2022-09-13T07:23:05.451Z,1002.91
2022-09-13T07:24:05.462Z,1002.87
2022-09-13T07:25:05.439Z,1002.89
2022-09-13T07:26:05.424Z,1002.88
2022-09-13T07:27:05.412Z,1002.89
2022-09-13T07:28:05.416Z,1002.93
2022-09-13T07:29:05.393Z,1002.94
2022-09-13T07:30:05.409Z,1002.96
2022-09-13T07:31:05.439Z,1002.98
2022-09-13T07:32:05.362Z,1002.99
2022-09-13T07:33:05.344Z,1002.99
2022-09-13T07:34:05.337Z,1002.92
2022-09-13T07:35:05.346Z,1003.01
2022-09-13T07:36:05.314Z,1002.96
2022-09-13T07:37:05.304Z,1002.97
2022-09-13T07:38:05.296Z,1002.98
2022-09-13T07:39:05.277Z,1002.97
2022-09-13T07:40:05.312Z,1003.01
2022-09-13T07:41:05.257Z,1003.02
2022-09-13T07:42:05.253Z,1003.03
2022-09-13T07:43:05.236Z,1003.06
2022-09-13T07:44:05.236Z,1003.07
2022-09-13T07:45:05.208Z,1003.07
2022-09-13T07:46:05.294Z,1003.04
2022-09-13T07:47:05.188Z,1003.04
2022-09-13T07:48:05.187Z,1003.06
2022-09-13T07:49:05.169Z,1003.05
2022-09-13T07:50:05.159Z,1003.04
2022-09-13T07:51:05.149Z,1003.06
2022-09-13T07:52:05.176Z,1003.04
2022-09-13T07:53:05.129Z,1003.11
2022-09-13T07:54:05.118Z,1003.11
2022-09-13T07:55:05.111Z,1003.13
2022-09-13T07:56:05.119Z,1003.12
2022-09-13T07:57:05.090Z,1003.08
2022-09-13T07:58:05.071Z,1003.12
2022-09-13T07:59:05.060Z,1003.11
2022-09-13T08:00:05.052Z,1003.10
2022-09-13T08:01:05.140Z,1003.09
2022-09-13T08:02:05.137Z,1003.11
2022-09-13T08:03:05.012Z,1003.09
2022-09-13T08:04:05.014Z,1003.13
2022-09-13T08:05:05.014Z,1003.15
2022-09-13T08:06:05.010Z,1003.13
2022-09-13T08:07:04.971Z,1003.15
2022-09-13T08:08:04.963Z,1003.13
2022-09-13T08:09:04.951Z,1003.17
2022-09-13T08:10:04.946Z,1003.17
2022-09-13T08:11:04.964Z,1003.19
2022-09-13T08:12:04.924Z,1003.21
2022-09-13T08:13:04.905Z,1003.22
2022-09-13T08:14:04.905Z,1003.23
2022-09-13T08:15:04.893Z,1003.25
2022-09-13T08:16:04.959Z,1003.27
2022-09-13T08:17:04.866Z,1003.29
2022-09-13T08:18:04.876Z,1003.28
2022-09-13T08:19:04.845Z,1003.31
2022-09-13T08:20:06.202Z,1003.29
2022-09-13T08:21:04.825Z,1003.30
2022-09-13T08:22:04.834Z,1003.35
2022-09-13T08:23:04.804Z,1003.30
2022-09-13T08:24:04.793Z,1003.36
2022-09-13T08:25:04.857Z,1003.36
2022-09-13T08:26:04.768Z,1003.36
2022-09-13T08:27:04.776Z,1003.35
2022-09-13T08:28:04.749Z,1003.33
2022-09-13T08:29:04.728Z,1003.36
2022-09-13T08:30:04.728Z,1003.36
2022-09-13T08:31:04.739Z,1003.36
2022-09-13T08:32:04.709Z,1003.36
2022-09-13T08:33:04.710Z,1003.39
2022-09-13T08:34:04.681Z,1003.44
2022-09-13T08:35:05.420Z,1003.41
2022-09-13T08:36:04.666Z,1003.45
2022-09-13T08:37:04.650Z,1003.41
2022-09-13T08:38:04.641Z,1003.42
2022-09-13T08:39:04.649Z,1003.41
2022-09-13T08:40:04.641Z,1003.41
2022-09-13T08:41:04.604Z,1003.41
2022-09-13T08:42:04.592Z,1003.38
2022-09-13T08:43:04.582Z,1003.41
2022-09-13T08:44:04.573Z,1003.38
2022-09-13T08:45:04.581Z,1003.31
2022-09-13T08:46:04.605Z,1003.38
2022-09-13T08:47:04.534Z,1003.39
2022-09-13T08:48:04.534Z,1003.33
2022-09-13T08:49:04.513Z,1003.36
2022-09-13T08:50:04.535Z,1003.34
2022-09-13T08:51:04.494Z,1003.31
2022-09-13T08:52:05.306Z,1003.30
2022-09-13T08:53:04.472Z,1003.29
2022-09-13T08:54:04.713Z,1003.35
2022-09-13T08:55:04.476Z,1003.34
2022-09-13T08:56:04.444Z,1003.36
2022-09-13T08:57:04.434Z,1003.32
2022-09-13T08:58:04.416Z,1003.31
2022-09-13T08:59:04.403Z,1003.31
2022-09-13T09:00:04.424Z,1003.33
2022-09-13T09:01:04.430Z,1003.30
2022-09-13T09:02:04.376Z,1003.31
2022-09-13T09:03:04.365Z,1003.32
2022-09-13T09:04:04.360Z,1003.32
2022-09-13T09:05:04.367Z,1003.29
2022-09-13T09:06:04.335Z,1003.33
2022-09-13T09:07:04.318Z,1003.25
2022-09-13T09:08:04.307Z,1003.25
2022-09-13T09:09:04.305Z,1003.24
2022-09-13T09:10:04.307Z,1003.25
2022-09-13T09:11:04.277Z,1003.22
2022-09-13T09:12:04.308Z,1003.26
2022-09-13T09:13:04.249Z,1003.27
2022-09-13T09:14:04.249Z,1003.29
2022-09-13T09:15:04.259Z,1003.22
2022-09-13T09:16:04.253Z,1003.21
2022-09-13T09:17:04.211Z,1003.17
2022-09-13T09:18:04.200Z,1003.15
2022-09-13T09:19:04.190Z,1003.17
2022-09-13T09:20:04.210Z,1003.19
2022-09-13T09:21:04.177Z,1003.20
2022-09-13T09:22:04.183Z,1003.19
2022-09-13T09:23:04.141Z,1003.27
2022-09-13T09:24:04.140Z,1003.28
2022-09-13T09:25:04.123Z,1003.28
2022-09-13T09:26:04.113Z,1003.31
2022-09-13T09:27:04.122Z,1003.31
2022-09-13T09:28:04.091Z,1003.32
2022-09-13T09:29:04.083Z,1003.34
2022-09-13T09:30:04.073Z,1003.35
2022-09-13T09:31:04.118Z,1003.29
2022-09-13T09:32:04.075Z,1003.29
2022-09-13T09:33:04.069Z,1003.28
2022-09-13T09:34:04.025Z,1003.32
2022-09-13T09:35:04.015Z,1003.30
2022-09-13T09:36:04.012Z,1003.29
2022-09-13T09:37:03.996Z,1003.35
2022-09-13T09:38:04.007Z,1003.30
2022-09-13T09:39:03.976Z,1003.31
2022-09-13T09:40:03.991Z,1003.26
2022-09-13T09:41:03.946Z,1003.27
2022-09-13T09:42:03.937Z,1003.31
2022-09-13T09:43:03.947Z,1003.26
2022-09-13T09:44:03.918Z,1003.29
2022-09-13T09:45:03.908Z,1003.29
2022-09-13T09:46:03.943Z,1003.34
2022-09-13T09:47:03.887Z,1003.37
2022-09-13T09:48:03.878Z,1003.34
2022-09-13T09:49:03.858Z,1003.36
2022-09-13T09:50:03.918Z,1003.36
2022-09-13T09:51:03.838Z,1003.35
2022-09-13T09:52:03.830Z,1003.34
2022-09-13T09:53:03.822Z,1003.33
2022-09-13T09:54:03.811Z,1003.35
2022-09-13T09:55:03.798Z,1003.40
2022-09-13T09:56:03.809Z,1003.35
2022-09-13T09:57:03.782Z,1003.33
2022-09-13T09:58:03.762Z,1003.36
2022-09-13T09:59:03.751Z,1003.38
2022-09-13T10:00:03.770Z,1003.39
2022-09-13T10:01:03.774Z,1003.35
2022-09-13T10:02:03.770Z,1003.35
2022-09-13T10:03:03.710Z,1003.34
2022-09-13T10:04:03.699Z,1003.37
2022-09-13T10:05:03.684Z,1003.34
2022-09-13T10:06:03.700Z,1003.34
2022-09-13T10:07:03.669Z,1003.32
2022-09-13T10:08:03.653Z,1003.35
2022-09-13T10:09:03.644Z,1003.27
2022-09-13T10:10:03.635Z,1003.31
2022-09-13T10:11:03.642Z,1003.32
2022-09-13T10:12:03.611Z,1003.28
2022-09-13T10:13:03.596Z,1003.30
2022-09-13T10:14:03.594Z,1003.33
2022-09-13T10:15:03.585Z,1003.30
2022-09-13T10:16:03.593Z,1003.27
2022-09-13T10:17:03.634Z,1003.26
2022-09-13T10:18:03.547Z,1003.24
2022-09-13T10:19:03.537Z,1003.22
2022-09-13T10:20:03.528Z,1003.23
2022-09-13T10:21:03.537Z,1003.22
2022-09-13T10:22:03.508Z,1003.17
2022-09-13T10:23:03.489Z,1003.20
2022-09-13T10:24:03.485Z,1003.17
2022-09-13T10:25:03.469Z,1003.15
2022-09-13T10:26:03.460Z,1003.21
2022-09-13T10:27:03.470Z,1003.15
2022-09-13T10:28:03.450Z,1003.20
2022-09-13T10:29:03.430Z,1003.15
2022-09-13T10:30:03.421Z,1003.12
2022-09-13T10:31:03.466Z,1003.17
2022-09-13T10:32:03.427Z,1003.15
2022-09-13T10:33:03.401Z,1003.17
2022-09-13T10:34:03.381Z,1003.17
2022-09-13T10:35:03.362Z,1003.14
2022-09-13T10:36:03.361Z,1003.18
2022-09-13T10:37:03.351Z,1003.14
2022-09-13T10:38:03.364Z,1003.13
2022-09-13T10:39:03.334Z,1003.19
2022-09-13T10:40:03.371Z,1003.15
2022-09-13T10:41:03.304Z,1003.14
2022-09-13T10:42:03.314Z,1003.14
2022-09-13T10:43:03.284Z,1003.13
2022-09-13T10:44:07.733Z,1003.15
2022-09-13T10:45:04.264Z,1003.21
2022-09-13T10:46:03.271Z,1003.18
2022-09-13T10:47:03.266Z,1003.22
2022-09-13T10:48:03.235Z,1003.18
2022-09-13T10:49:03.224Z,1003.17
2022-09-13T10:50:03.215Z,1003.18
2022-09-13T10:51:03.378Z,1003.21
2022-09-13T10:52:03.198Z,1003.20
2022-09-13T10:53:03.206Z,1003.18
2022-09-13T10:54:03.176Z,1003.21
2022-09-13T10:55:03.169Z,1003.25
2022-09-13T10:56:03.157Z,1003.27
2022-09-13T10:57:03.140Z,1003.27
2022-09-13T10:58:03.293Z,1003.23
2022-09-13T10:59:03.120Z,1003.23
2022-09-13T11:00:03.110Z,1003.18
2022-09-13T11:01:03.178Z,1003.20
2022-09-13T11:02:03.089Z,1003.23
2022-09-13T11:03:03.109Z,1003.22
2022-09-13T11:04:03.094Z,1003.15
2022-09-13T11:05:03.052Z,1003.15
2022-09-13T11:06:03.050Z,1003.14
2022-09-13T11:07:03.048Z,1003.16
2022-09-13T11:08:03.022Z,1003.21
2022-09-13T11:09:03.040Z,1003.18
2022-09-13T11:10:03.012Z,1003.20
2022-09-13T11:11:02.993Z,1003.16
2022-09-13T11:12:02.981Z,1003.19
2022-09-13T11:13:02.985Z,1003.13
2022-09-13T11:14:02.982Z,1003.18
2022-09-13T11:15:02.954Z,1003.16
2022-09-13T11:16:02.942Z,1003.10
2022-09-13T11:17:02.948Z,1003.17
2022-09-13T11:18:02.922Z,1003.22
2022-09-13T11:19:02.916Z,1003.22
2022-09-13T11:20:02.930Z,1003.21
2022-09-13T11:21:02.893Z,1003.24
2022-09-13T11:22:02.876Z,1003.19
2022-09-13T11:23:10.660Z,1003.21
2022-09-13T11:24:02.862Z,1003.21
2022-09-13T11:25:02.850Z,1003.21
2022-09-13T11:26:02.863Z,1003.24
2022-09-13T11:27:02.828Z,1003.17
2022-09-13T11:28:02.811Z,1003.14
2022-09-13T11:29:02.808Z,1003.21
2022-09-13T11:30:02.818Z,1003.21
2022-09-13T11:31:02.780Z,1003.21
2022-09-13T11:32:02.811Z,1003.23
2022-09-13T11:33:02.773Z,1003.19
2022-09-13T11:34:02.759Z,1003.14
2022-09-13T11:35:02.765Z,1003.18
2022-09-13T11:36:02.721Z,1003.18
2022-09-13T11:37:02.720Z,1003.20
2022-09-13T11:38:02.704Z,1003.19
2022-09-13T11:39:02.694Z,1003.19
2022-09-13T11:40:02.804Z,1003.20
2022-09-13T11:41:02.682Z,1003.16
2022-09-13T11:42:02.660Z,1003.08
2022-09-13T11:43:02.653Z,1003.16
2022-09-13T11:44:02.635Z,1003.10
2022-09-13T11:45:02.625Z,1003.11
2022-09-13T11:46:02.725Z,1003.10
2022-09-13T11:47:02.605Z,1003.04
2022-09-13T11:48:02.602Z,1003.06
2022-09-13T11:49:02.585Z,1003.05
2022-09-13T11:50:02.575Z,1003.05
2022-09-13T11:51:02.586Z,1003.04
2022-09-13T11:52:02.547Z,1003.06
2022-09-13T11:53:02.548Z,1003.09
2022-09-13T11:54:02.526Z,1003.05
2022-09-13T11:55:02.518Z,1003.06
2022-09-13T11:56:02.507Z,1003.05
2022-09-13T11:57:02.529Z,1003.03
2022-09-13T11:58:02.491Z,1003.06
2022-09-13T11:59:02.478Z,1003.04
2022-09-13T12:00:02.458Z,1003.05
2022-09-13T12:01:02.477Z,1003.06
2022-09-13T12:02:02.539Z,1003.03
2022-09-13T12:03:02.535Z,1002.99
2022-09-13T12:04:02.422Z,1002.98
2022-09-13T12:05:21.488Z,1002.99
2022-09-13T12:06:03.439Z,1002.98